Time;durP1;ratioP1;P1;durP2;ratioP2;P2;SDS_P1;SDS_P2;PMS_P1;PMS_P2;Temp;Humidity;BMP_temperature;BMP_pressure;BME280_temperature;BME280_humidity;BME280_pressure;Samples;Min_cycle;Max_cycle;Signal;HPM_P1;HPM_P2
2023/04/17 00:00:37;;;;;;;78.10;33.55;;;8.30;99.90;;;;;;5095692;28;20051;-81
2023/04/17 00:03:03;;;;;;;76.30;34.28;;;8.40;99.90;;;;;;5091870;28;20059;-80
2023/04/17 00:05:34;;;;;;;72.80;33.15;;;8.40;99.90;;;;;;5109478;28;20054;-80
2023/04/17 00:08:01;;;;;;;67.78;33.53;;;8.40;99.90;;;;;;5074002;28;20048;-81
2023/04/17 00:10:26;;;;;;;71.72;33.63;;;8.40;99.90;;;;;;5109033;28;20048;-81
2023/04/17 00:12:52;;;;;;;74.00;32.38;;;8.40;99.90;;;;;;5074376;28;20050;-81
2023/04/17 00:15:18;;;;;;;64.47;29.92;;;8.50;99.90;;;;;;5091539;28;20058;-80
2023/04/17 00:17:43;;;;;;;68.75;30.20;;;8.60;99.90;;;;;;5091786;28;20470;-81
2023/04/17 00:20:09;;;;;;;66.38;31.60;;;8.60;99.90;;;;;;5109041;28;20050;-80
2023/04/17 00:22:38;;;;;;;70.50;33.08;;;8.70;99.90;;;;;;5091153;28;20073;-80
2023/04/17 00:25:04;;;;;;;71.75;32.13;;;8.50;99.90;;;;;;5091698;28;20431;-78
2023/04/17 00:27:30;;;;;;;70.75;33.50;;;8.50;99.90;;;;;;5109206;28;20502;-79
2023/04/17 00:29:56;;;;;;;65.00;32.10;;;8.60;99.90;;;;;;5091540;28;20136;-79
2023/04/17 00:32:21;;;;;;;67.93;34.63;;;8.60;99.90;;;;;;5091337;28;20071;-83
2023/04/17 00:34:49;;;;;;;68.53;30.38;;;8.60;99.90;;;;;;5109385;28;20039;-80
2023/04/17 00:37:15;;;;;;;68.53;31.33;;;8.60;99.90;;;;;;5090530;28;20050;-81
2023/04/17 00:39:40;;;;;;;66.72;34.20;;;8.60;99.90;;;;;;5090725;28;20043;-81
2023/04/17 00:42:06;;;;;;;61.50;31.63;;;8.70;99.90;;;;;;5099761;28;20046;-81
2023/04/17 00:44:32;;;;;;;72.63;35.47;;;8.70;99.90;;;;;;5099875;28;20479;-81
2023/04/17 00:46:57;;;;;;;78.97;35.35;;;8.50;99.90;;;;;;5068098;28;20623;-80
2023/04/17 00:49:23;;;;;;;77.95;36.42;;;8.50;99.90;;;;;;5110865;28;20130;-80
2023/04/17 00:51:49;;;;;;;75.20;35.47;;;8.40;99.90;;;;;;5129582;28;20589;-80
2023/04/17 00:54:15;;;;;;;73.38;34.80;;;8.40;99.90;;;;;;5094193;28;20130;-79
2023/04/17 00:56:41;;;;;;;76.13;34.95;;;8.40;99.90;;;;;;5110630;28;20427;-80
2023/04/17 00:59:11;;;;;;;63.53;31.10;;;8.40;99.90;;;;;;5093815;28;20488;-81
2023/04/17 01:01:37;;;;;;;62.45;32.33;;;8.60;99.90;;;;;;5077995;28;20498;-80
2023/04/17 01:04:06;;;;;;;74.43;35.13;;;8.60;99.90;;;;;;5110845;28;20062;-80
2023/04/17 01:06:35;;;;;;;69.38;32.85;;;8.60;99.90;;;;;;5111500;28;20521;-81
2023/04/17 01:09:03;;;;;;;74.00;34.40;;;8.50;99.90;;;;;;5095898;27;20126;-81
2023/04/17 01:11:28;;;;;;;63.40;32.78;;;8.50;99.90;;;;;;5115046;27;20062;-81
2023/04/17 01:13:54;;;;;;;70.85;33.30;;;8.70;99.90;;;;;;5114671;27;20621;-79
2023/04/17 01:16:26;;;;;;;65.57;32.53;;;8.70;99.90;;;;;;5114888;27;20050;-80
2023/04/17 01:18:52;;;;;;;67.65;32.25;;;8.60;99.90;;;;;;5133352;27;20508;-80
2023/04/17 01:21:17;;;;;;;62.20;30.05;;;8.60;99.90;;;;;;5097407;27;20171;-80
2023/04/17 01:23:50;;;;;;;69.55;31.40;;;8.70;99.90;;;;;;5114230;27;20054;-80
2023/04/17 01:26:20;;;;;;;74.75;34.45;;;8.70;99.90;;;;;;5132412;27;20176;-81
2023/04/17 01:28:53;;;;;;;76.38;35.03;;;8.60;99.90;;;;;;5097942;27;20047;-80
2023/04/17 01:31:19;;;;;;;67.15;33.20;;;8.60;99.90;;;;;;5098330;27;20133;-80
2023/04/17 01:33:45;;;;;;;69.10;34.65;;;8.60;99.90;;;;;;5115409;27;20124;-79
2023/04/17 01:36:11;;;;;;;75.20;34.05;;;8.60;99.90;;;;;;5082416;27;20039;-80
2023/04/17 01:38:40;;;;;;;66.28;31.67;;;8.60;99.90;;;;;;5114464;27;20047;-80
2023/04/17 01:41:09;;;;;;;73.55;35.10;;;8.70;99.90;;;;;;5114778;27;20050;-81
2023/04/17 01:43:39;;;;;;;73.85;34.70;;;8.60;99.90;;;;;;5132764;27;20047;-79
2023/04/17 01:46:05;;;;;;;73.13;34.50;;;8.60;99.90;;;;;;5097356;27;20050;-79
2023/04/17 01:48:30;;;;;;;85.55;37.20;;;8.60;99.90;;;;;;5097460;27;20055;-80
2023/04/17 01:50:56;;;;;;;80.03;36.47;;;8.50;99.90;;;;;;5132096;27;20049;-79
2023/04/17 01:53:22;;;;;;;88.13;36.78;;;8.50;99.90;;;;;;5132282;27;20051;-79
2023/04/17 01:55:47;;;;;;;83.75;36.97;;;8.50;99.90;;;;;;5132241;27;20047;-80
2023/04/17 01:58:13;;;;;;;78.85;37.95;;;8.40;99.90;;;;;;5113848;27;20055;-81
2023/04/17 02:00:39;;;;;;;80.00;36.25;;;8.40;99.90;;;;;;5133274;27;20085;-80
2023/04/17 02:03:04;;;;;;;79.45;36.22;;;8.40;99.90;;;;;;5097593;27;20065;-79
2023/04/17 02:05:30;;;;;;;73.97;33.10;;;8.50;99.90;;;;;;5116378;27;20076;-79
2023/04/17 02:07:56;;;;;;;73.80;36.47;;;8.60;99.90;;;;;;5131838;27;20086;-81
2023/04/17 02:10:21;;;;;;;79.55;35.08;;;8.60;99.90;;;;;;5097126;27;20050;-82
2023/04/17 02:12:47;;;;;;;81.43;37.20;;;8.50;99.90;;;;;;5096399;27;20051;-78
2023/04/17 02:15:13;;;;;;;78.68;36.70;;;8.50;99.90;;;;;;5113641;27;20043;-80
2023/04/17 02:17:38;;;;;;;84.15;37.30;;;8.50;99.90;;;;;;5096561;27;20501;-81
2023/04/17 02:20:06;;;;;;;75.72;37.08;;;8.40;99.90;;;;;;5131982;27;20118;-80
2023/04/17 02:22:32;;;;;;;79.82;37.17;;;8.50;99.90;;;;;;5079725;27;20049;-80
2023/04/17 02:24:57;;;;;;;71.28;32.38;;;8.50;99.90;;;;;;5116763;27;20130;-80
2023/04/17 02:27:23;;;;;;;91.85;39.28;;;8.50;99.90;;;;;;5099364;27;20086;-80
2023/04/17 02:29:49;;;;;;;91.20;37.88;;;8.50;99.90;;;;;;5096349;27;20206;-81
2023/04/17 02:32:18;;;;;;;89.53;38.30;;;8.50;99.90;;;;;;5077665;27;20550;-81
2023/04/17 02:34:44;;;;;;;88.72;38.53;;;8.50;99.90;;;;;;5096122;27;20068;-81
2023/04/17 02:37:09;;;;;;;93.28;39.80;;;8.40;99.90;;;;;;5131718;27;20460;-80
2023/04/17 02:39:35;;;;;;;91.97;38.63;;;8.50;99.90;;;;;;5095861;27;20474;-80
2023/04/17 02:42:01;;;;;;;92.45;39.53;;;8.50;99.90;;;;;;5096683;27;20051;-79
2023/04/17 02:44:27;;;;;;;99.82;39.03;;;8.50;99.90;;;;;;5131084;27;20103;-79
2023/04/17 02:46:53;;;;;;;102.65;39.95;;;8.40;99.90;;;;;;5112643;27;20138;-81
2023/04/17 02:49:19;;;;;;;100.30;38.60;;;8.40;99.90;;;;;;5113142;27;20047;-80
2023/04/17 02:51:44;;;;;;;106.95;39.15;;;8.40;99.90;;;;;;5131861;27;20039;-81
2023/04/17 02:54:11;;;;;;;103.00;38.60;;;8.30;99.90;;;;;;5080190;27;20058;-81
2023/04/17 02:56:40;;;;;;;98.25;38.78;;;7.60;99.90;;;;;;5112927;27;20708;-81
2023/04/17 02:59:05;;;;;;;108.25;36.90;;;8.30;99.90;;;;;;5113054;27;20069;-81
2023/04/17 03:01:32;;;;;;;104.45;35.90;;;8.20;99.90;;;;;;5095322;27;20487;-80
2023/04/17 03:03:58;;;;;;;95.57;36.20;;;8.20;99.90;;;;;;5095828;27;20055;-79
2023/04/17 03:06:25;;;;;;;117.53;37.25;;;8.40;99.90;;;;;;5078558;27;20050;-81
2023/04/17 03:08:53;;;;;;;105.03;35.95;;;8.20;99.90;;;;;;5094969;27;20529;-80
2023/04/17 03:11:18;;;;;;;93.53;36.95;;;8.30;99.90;;;;;;5110976;27;20058;-77
2023/04/17 03:13:44;;;;;;;98.68;34.50;;;8.30;99.90;;;;;;5078995;27;20147;-81
2023/04/17 03:16:11;;;;;;;97.25;36.58;;;8.30;99.90;;;;;;5112618;27;20047;-80
2023/04/17 03:18:40;;;;;;;105.00;34.22;;;8.30;99.90;;;;;;5078298;27;20051;-80
2023/04/17 03:21:06;;;;;;;104.78;36.60;;;8.30;99.90;;;;;;5102996;27;20120;-80
2023/04/17 03:23:31;;;;;;;101.43;35.75;;;8.20;99.90;;;;;;5102604;27;20047;-81
2023/04/17 03:25:58;;;;;;;94.68;33.35;;;8.30;99.90;;;;;;5061535;27;20048;-78
2023/04/17 03:28:24;;;;;;;83.35;29.38;;;8.30;99.90;;;;;;5105237;27;20086;-80
2023/04/17 03:30:50;;;;;;;85.15;33.15;;;8.30;99.90;;;;;;5099703;28;20088;-81
2023/04/17 03:33:21;;;;;;;85.25;32.30;;;8.30;99.90;;;;;;5098579;27;20169;-82
2023/04/17 03:35:56;;;;;;;92.45;32.15;;;8.30;99.90;;;;;;5080763;28;20043;-81
2023/04/17 03:38:46;;;;;;;83.45;33.10;;;8.30;99.90;;;;;;5035382;28;20140;-81
2023/04/17 03:41:18;;;;;;;84.90;31.65;;;8.40;99.90;;;;;;5034126;28;20044;-81
2023/04/17 03:44:11;;;;;;;86.60;31.27;;;8.90;99.90;;;;;;5033174;28;20461;-80
2023/04/17 03:47:00;;;;;;;81.50;32.13;;;8.40;99.90;;;;;;5032142;28;20102;-82
2023/04/17 03:49:53;;;;;;;86.82;31.63;;;8.30;99.90;;;;;;5046718;28;20076;-81
2023/04/17 03:52:29;;;;;;;70.53;28.17;;;8.30;99.90;;;;;;5030079;28;20460;-80
2023/04/17 03:55:23;;;;;;;74.53;30.40;;;8.40;99.90;;;;;;5031223;28;20064;-82
2023/04/17 03:58:04;;;;;;;85.90;32.20;;;8.20;99.90;;;;;;5046247;28;20160;-81
2023/04/17 04:01:21;;;;;;;82.57;31.27;;;8.30;99.90;;;;;;5033697;28;20142;-81
2023/04/17 04:04:05;;;;;;;84.95;31.90;;;8.20;99.90;;;;;;4997132;28;20224;-81
2023/04/17 04:06:41;;;;;;;81.78;31.52;;;8.10;99.90;;;;;;5046154;28;20054;-81
2023/04/17 04:09:43;;;;;;;86.40;33.17;;;8.20;99.90;;;;;;5057928;28;20524;-80
2023/04/17 04:12:17;;;;;;;79.95;32.20;;;8.20;99.90;;;;;;5074125;28;20100;-80
2023/04/17 04:15:14;;;;;;;;;;;8.20;99.90;;;;;;5091539;28;20094;-80
2023/04/17 04:17:43;;;;;;;77.90;32.10;;;8.30;99.90;;;;;;5090748;28;19923;-81
2023/04/17 04:20:28;;;;;;;79.25;33.15;;;8.10;99.90;;;;;;5089514;28;20055;-80
2023/04/17 04:25:51;;;;;;;71.55;30.17;;;8.00;99.90;;;;;;5092269;28;20589;-81
2023/04/17 04:28:39;;;;;;;72.53;30.70;;;8.00;99.90;;;;;;5061859;28;20051;-82
2023/04/17 04:31:06;;;;;;;71.95;29.77;;;8.10;99.90;;;;;;5075990;28;20049;-81
2023/04/17 04:33:46;;;;;;;68.70;25.50;;;8.10;99.90;;;;;;5110326;28;20135;-82
2023/04/17 04:36:55;;;;;;;81.75;31.35;;;8.00;99.90;;;;;;5095621;28;20470;-80
2023/04/17 04:39:52;;;;;;;86.50;31.73;;;8.00;99.90;;;;;;5108260;28;20097;-81
2023/04/17 04:42:33;;;;;;;106.15;31.63;;;7.90;99.90;;;;;;5090097;28;20143;-81
2023/04/17 04:45:06;;;;;;;129.55;28.50;;;7.80;99.90;;;;;;5062799;28;20066;-80
2023/04/17 04:47:40;;;;;;;71.38;29.10;;;7.90;99.90;;;;;;5095037;28;20533;-80
2023/04/17 04:50:24;;;;;;;86.78;29.70;;;7.90;99.90;;;;;;5095149;28;20460;-81
2023/04/17 04:52:49;;;;;;;76.47;24.02;;;7.90;99.90;;;;;;5094428;28;20592;-82
2023/04/17 04:55:18;;;;;;;90.38;28.65;;;8.00;99.90;;;;;;5056510;28;20487;-80
2023/04/17 04:57:58;;;;;;;87.63;29.80;;;8.00;99.90;;;;;;5056085;28;20619;-80
2023/04/17 05:01:14;;;;;;;100.53;27.77;;;7.90;99.90;;;;;;5089525;28;20085;-81
2023/04/17 05:03:44;;;;;;;65.95;27.00;;;8.10;99.90;;;;;;5086235;28;20068;-83
2023/04/17 05:06:47;;;;;;;102.60;23.58;;;8.10;99.90;;;;;;5053721;28;20095;-82
2023/04/17 05:09:21;;;;;;;69.57;25.95;;;8.00;99.90;;;;;;5088557;28;20110;-81
2023/04/17 05:11:47;;;;;;;74.63;27.48;;;7.80;99.90;;;;;;5056010;28;20057;-81
2023/04/17 05:14:23;;;;;;;88.60;29.42;;;7.80;99.90;;;;;;5089487;28;20172;-81
2023/04/17 05:17:36;;;;;;;91.30;29.35;;;7.70;99.90;;;;;;5088233;28;20396;-80
2023/04/17 05:20:43;;;;;;;144.77;28.70;;;7.70;99.90;;;;;;5089999;28;20113;-81
2023/04/17 05:23:51;;;;;;;138.85;30.15;;;7.80;99.90;;;;;;5072299;28;20926;-81
2023/04/17 05:26:33;;;;;;;75.50;27.83;;;7.80;99.90;;;;;;5054310;28;20530;-79
2023/04/17 05:29:07;;;;;;;88.55;28.35;;;7.80;99.90;;;;;;5061760;28;20201;-82
2023/04/17 05:31:46;;;;;;;92.70;28.85;;;7.70;99.90;;;;;;5095562;28;20056;-83
2023/04/17 05:34:17;;;;;;;147.98;31.08;;;7.80;99.90;;;;;;5078103;28;20441;-82
2023/04/17 05:37:12;;;;;;;187.15;29.85;;;7.70;99.90;;;;;;5093458;28;20517;-83
2023/04/17 05:40:13;;;;;;;112.47;30.42;;;7.90;99.90;;;;;;5074340;28;20506;-81
2023/04/17 05:43:30;;;;;;;107.55;26.50;;;8.00;99.90;;;;;;5097727;28;20138;-80
2023/04/17 05:46:16;;;;;;;58.20;22.92;;;8.10;99.90;;;;;;5093426;28;20048;-81
2023/04/17 05:48:53;;;;;;;80.90;26.52;;;8.20;99.90;;;;;;5110829;28;20138;-81
2023/04/17 05:51:20;;;;;;;104.93;25.38;;;8.10;99.90;;;;;;5109047;28;20063;-80
2023/04/17 05:53:47;;;;;;;87.50;24.63;;;8.10;99.90;;;;;;5093241;28;20122;-81
2023/04/17 05:56:17;;;;;;;101.82;28.42;;;8.10;99.90;;;;;;5076870;28;20131;-81
2023/04/17 05:58:46;;;;;;;103.63;30.02;;;8.00;99.90;;;;;;5055650;28;20051;-79
2023/04/17 06:01:22;;;;;;;118.85;28.88;;;6.70;99.90;;;;;;5076666;28;20044;-81
2023/04/17 06:04:10;;;;;;;95.60;28.52;;;8.20;99.90;;;;;;5112027;28;20070;-80
2023/04/17 06:06:46;;;;;;;115.03;31.63;;;8.40;99.90;;;;;;5099386;28;20051;-81
2023/04/17 06:09:20;;;;;;;96.40;31.88;;;8.20;99.90;;;;;;5062734;28;20054;-80
2023/04/17 06:11:49;;;;;;;96.82;29.75;;;8.20;99.90;;;;;;5111566;28;20109;-80
2023/04/17 06:14:18;;;;;;;67.63;27.77;;;8.20;99.90;;;;;;5084353;27;20530;-81
2023/04/17 06:16:44;;;;;;;85.32;34.05;;;8.40;99.90;;;;;;5099038;27;20138;-79
2023/04/17 06:19:31;;;;;;;100.43;32.70;;;8.30;99.90;;;;;;5104195;27;20119;-80
2023/04/17 06:21:59;;;;;;;94.50;34.55;;;8.30;99.90;;;;;;5103783;27;20040;-83
2023/04/17 06:28:14;;;;;;;68.22;28.05;;;8.40;99.90;;;;;;5119860;27;20042;-80
2023/04/17 06:30:44;;;;;;;70.10;31.88;;;8.80;99.90;;;;;;5119586;27;20498;-81
2023/04/17 06:33:15;;;;;;;64.45;31.42;;;8.70;99.90;;;;;;5086842;27;20114;-79
2023/04/17 06:35:49;;;;;;;59.00;30.20;;;8.70;99.90;;;;;;5105487;27;20104;-81
2023/04/17 06:38:21;;;;;;;58.35;28.25;;;8.80;99.90;;;;;;5100593;27;20055;-82
2023/04/17 06:40:49;;;;;;;65.22;31.02;;;8.40;99.90;;;;;;5068465;28;20433;-81
2023/04/17 06:43:34;;;;;;;63.97;31.98;;;8.80;99.90;;;;;;5076691;28;20055;-81
2023/04/17 06:46:10;;;;;;;66.32;32.65;;;8.80;99.90;;;;;;5113700;28;20063;-81
2023/04/17 06:48:41;;;;;;;66.80;33.83;;;8.80;99.90;;;;;;5076061;28;20107;-81
2023/04/17 06:51:09;;;;;;;67.93;33.95;;;8.80;99.90;;;;;;5110295;28;20129;-80
2023/04/17 06:53:38;;;;;;;73.32;35.60;;;8.80;99.90;;;;;;5110399;28;20044;-83
2023/04/17 06:56:04;;;;;;;71.57;36.00;;;8.80;99.90;;;;;;5092412;28;20109;-82
2023/04/17 06:58:42;;;;;;;64.07;33.83;;;9.00;99.90;;;;;;5090947;28;20063;-82
2023/04/17 07:01:10;;;;;;;59.40;32.90;;;9.20;99.90;;;;;;5094643;27;20107;-85
2023/04/17 07:03:36;;;;;;;61.67;33.72;;;9.30;99.90;;;;;;5086214;27;20108;-81
2023/04/17 07:06:02;;;;;;;65.00;34.30;;;9.30;99.90;;;;;;5066775;27;20120;-82
2023/04/17 07:08:28;;;;;;;60.72;33.28;;;9.30;99.90;;;;;;5101528;27;20855;-82
2023/04/17 07:10:53;;;;;;;57.53;32.22;;;9.50;99.90;;;;;;5100497;27;20039;-83
2023/04/17 07:13:19;;;;;;;59.28;32.92;;;9.80;99.90;;;;;;5103787;27;20054;-84
2023/04/17 07:15:51;;;;;;;62.47;34.30;;;9.80;99.90;;;;;;5103325;27;20051;-84
2023/04/17 07:18:25;;;;;;;54.15;32.72;;;9.70;99.90;;;;;;5118604;27;20133;-83
2023/04/17 07:21:02;;;;;;;56.92;34.60;;;9.90;99.90;;;;;;5103389;27;20077;-83
2023/04/17 07:23:40;;;;;;;57.85;34.63;;;9.90;99.90;;;;;;5102797;27;20126;-85
2023/04/17 07:26:06;;;;;;;60.25;34.30;;;10.10;99.90;;;;;;5068442;28;20558;-84
2023/04/17 07:31:56;;;;;;;46.00;29.98;;;10.40;99.90;;;;;;5099095;28;20100;-85
2023/04/17 07:34:24;;;;;;;46.05;30.92;;;10.70;99.90;;;;;;5102309;27;20039;-84
2023/04/17 07:36:51;;;;;;;45.45;30.90;;;10.60;99.90;;;;;;5099483;28;20043;-85
2023/04/17 07:39:17;;;;;;;45.63;30.73;;;10.70;99.90;;;;;;5101172;27;20077;-84
2023/04/17 07:41:43;;;;;;;48.83;31.13;;;10.80;99.90;;;;;;5100225;27;20047;-83
2023/04/17 07:44:12;;;;;;;47.58;31.90;;;10.70;99.90;;;;;;5086332;27;20055;-81
2023/04/17 07:46:38;;;;;;;49.83;31.48;;;10.70;99.90;;;;;;5099547;27;20063;-83
2023/04/17 07:49:05;;;;;;;44.65;30.67;;;10.60;99.90;;;;;;5102039;27;20043;-81
2023/04/17 07:51:40;;;;;;;46.88;30.67;;;10.90;99.90;;;;;;5085566;27;20043;-82
2023/04/17 07:54:06;;;;;;;43.78;29.85;;;11.00;99.90;;;;;;5085565;27;20507;-83
2023/04/17 07:56:33;;;;;;;44.03;30.60;;;11.10;99.90;;;;;;5101397;27;20051;-82
2023/04/17 07:58:59;;;;;;;40.53;28.60;;;11.20;99.90;;;;;;5065210;28;20188;-83
2023/04/17 08:01:26;;;;;;;38.17;28.23;;;11.30;99.90;;;;;;5068808;27;20043;-84
2023/04/17 08:03:54;;;;;;;40.40;28.05;;;10.50;99.90;;;;;;5084850;28;20085;-84
2023/04/17 08:06:19;;;;;;;37.58;26.77;;;11.80;99.90;;;;;;5100193;28;20066;-84
2023/04/17 08:08:54;;;;;;;36.38;26.90;;;12.00;99.90;;;;;;5100276;28;20456;-84
2023/04/17 08:11:20;;;;;;;36.65;27.17;;;12.10;99.90;;;;;;5092125;28;20524;-81
2023/04/17 08:13:45;;;;;;;37.50;26.27;;;12.10;99.90;;;;;;5078601;28;20043;-82
2023/04/17 08:16:11;;;;;;;33.33;26.08;;;12.30;99.90;;;;;;5077987;28;20047;-85
2023/04/17 08:18:40;;;;;;;35.65;26.17;;;12.70;99.90;;;;;;5112745;27;20040;-86
2023/04/17 08:21:07;;;;;;;33.28;25.38;;;12.80;99.90;;;;;;5110407;27;20078;-84
2023/04/17 08:23:34;;;;;;;35.45;26.35;;;12.60;99.90;;;;;;5088978;27;20047;-83
2023/04/17 08:25:59;;;;;;;33.60;25.30;;;12.60;99.90;;;;;;5088464;27;20050;-84
2023/04/17 08:28:26;;;;;;;28.52;22.23;;;12.80;99.90;;;;;;5087524;27;20038;-82
2023/04/17 08:30:54;;;;;;;33.47;25.45;;;13.20;99.90;;;;;;5094573;27;20406;-81
2023/04/17 08:33:20;;;;;;;27.80;22.77;;;13.20;99.90;;;;;;5077738;27;20122;-79
2023/04/17 08:35:46;;;;;;;31.27;23.98;;;13.70;99.90;;;;;;5097653;27;20147;-82
2023/04/17 08:38:13;;;;;;;28.13;20.40;;;13.50;99.90;;;;;;5091272;27;20123;-82
2023/04/17 08:40:45;;;;;;;29.73;24.20;;;13.60;99.90;;;;;;5064420;27;20050;-81
2023/04/17 08:43:18;;;;;;;25.73;21.52;;;13.40;99.90;;;;;;5115204;27;20051;-83
2023/04/17 08:45:52;;;;;;;29.05;22.95;;;13.80;99.90;;;;;;5115901;27;20104;-81
2023/04/17 08:48:20;;;;;;;28.55;22.90;;;13.60;99.90;;;;;;5116071;27;20055;-81
2023/04/17 08:50:48;;;;;;;31.90;25.30;;;13.90;99.90;;;;;;5120080;27;20059;-81
2023/04/17 08:53:19;;;;;;;29.25;24.13;;;14.20;99.90;;;;;;5116924;27;20437;-80
2023/04/17 08:55:45;;;;;;;30.33;24.30;;;14.00;99.90;;;;;;5097738;27;20043;-80
2023/04/17 08:58:12;;;;;;;29.02;24.00;;;13.90;99.90;;;;;;5093536;27;20054;-80
2023/04/17 09:00:41;;;;;;;25.83;21.25;;;13.90;99.90;;;;;;5104736;27;20491;-81
2023/04/17 09:03:09;;;;;;;29.60;23.95;;;14.20;99.90;;;;;;5071652;27;20419;-82
2023/04/17 09:05:36;;;;;;;30.55;24.52;;;14.20;99.90;;;;;;5104250;27;20044;-82
2023/04/17 09:08:12;;;;;;;29.33;23.77;;;14.20;99.90;;;;;;5103076;27;20043;-81
2023/04/17 09:10:42;;;;;;;35.30;23.58;;;14.00;99.90;;;;;;5091848;27;20101;-81
2023/04/17 09:13:08;;;;;;;27.70;20.20;;;14.30;99.90;;;;;;5089756;27;20083;-83
2023/04/17 09:15:34;;;;;;;24.70;19.92;;;15.00;99.90;;;;;;5081297;27;20401;-83
2023/04/17 09:18:00;;;;;;;23.70;18.90;;;15.10;99.90;;;;;;5097284;27;20118;-83
2023/04/17 09:20:26;;;;;;;20.70;16.88;;;15.20;99.90;;;;;;5081192;27;20058;-83
2023/04/17 09:23:00;;;;;;;25.40;21.38;;;15.20;99.90;;;;;;5097525;27;20048;-83
2023/04/17 09:25:27;;;;;;;;;;;14.70;99.90;;;;;;5133298;27;20438;-82
2023/04/17 09:27:53;;;;;;;23.75;19.20;;;15.30;99.90;;;;;;5097268;27;19923;-83
2023/04/17 09:30:19;;;;;;;21.98;18.35;;;15.60;99.90;;;;;;5079939;27;20367;-83
2023/04/17 09:33:01;;;;;;;25.98;20.85;;;15.20;99.90;;;;;;5082336;27;20108;-83
2023/04/17 09:35:27;;;;;;;25.60;18.42;;;15.60;99.90;;;;;;5081582;27;20089;-84
2023/04/17 09:37:53;;;;;;;23.52;18.08;;;15.60;99.90;;;;;;5107376;27;20489;-86
2023/04/17 09:40:20;;;;;;;22.55;18.98;;;16.00;99.90;;;;;;5086731;27;20129;-85
2023/04/17 09:43:02;;;;;;;21.20;17.67;;;16.00;99.90;;;;;;5070909;27;20496;-87
2023/04/17 09:45:34;;;;;;;20.27;15.63;;;15.90;99.90;;;;;;5101962;27;20072;-85
2023/04/17 09:48:04;;;;;;;23.42;17.02;;;16.30;99.90;;;;;;5055445;27;20484;-87
2023/04/17 09:50:30;;;;;;;21.23;17.25;;;16.40;99.90;;;;;;5054116;27;20051;-87
2023/04/17 09:52:55;;;;;;;25.60;18.73;;;16.20;99.90;;;;;;5071644;27;20039;-88
2023/04/17 09:55:28;;;;;;;20.02;16.02;;;15.70;99.90;;;;;;5087660;27;20069;-86
2023/04/17 09:57:54;;;;;;;22.52;17.00;;;16.30;99.90;;;;;;5087700;27;20044;-85
2023/04/17 10:00:21;;;;;;;19.85;16.67;;;16.20;99.90;;;;;;5088922;27;20112;-83
2023/04/17 10:02:48;;;;;;;20.98;15.02;;;16.10;99.90;;;;;;5095984;27;20043;-83
2023/04/17 10:05:14;;;;;;;22.13;15.65;;;16.60;99.90;;;;;;5113546;27;20797;-84
2023/04/17 10:07:40;;;;;;;21.42;16.48;;;16.50;99.90;;;;;;5104602;27;20043;-82
2023/04/17 10:10:09;;;;;;;17.27;13.95;;;16.30;99.90;;;;;;5092463;28;20108;-82
2023/04/17 10:12:35;;;;;;;19.88;16.27;;;15.90;99.90;;;;;;5093879;28;20057;-83
2023/04/17 10:15:03;;;;;;;20.17;14.10;;;16.20;99.90;;;;;;5059765;28;20130;-83
2023/04/17 10:17:36;;;;;;;19.60;14.63;;;16.50;99.90;;;;;;5061174;27;20135;-83
2023/04/17 10:20:31;;;;;;;19.63;14.18;;;16.70;99.90;;;;;;5071843;27;20039;-83
2023/04/17 10:22:57;;;;;;;19.70;15.73;;;16.40;99.90;;;;;;5104284;27;20104;-81
2023/04/17 10:25:26;;;;;;;18.40;15.05;;;16.20;99.90;;;;;;5117592;27;20209;-81
2023/04/17 10:28:01;;;;;;;18.40;12.90;;;16.00;99.40;;;;;;5090325;27;20513;-82
2023/04/17 10:30:56;;;;;;;18.77;13.77;;;16.40;98.50;;;;;;5097365;27;20047;-84
2023/04/17 10:33:23;;;;;;;;;;;16.00;97.80;;;;;;5097608;27;20131;-84
2023/04/17 10:35:49;;;;;;;22.88;14.00;;;16.30;98.40;;;;;;5095656;27;20382;-82
2023/04/17 10:38:15;;;;;;;20.25;15.60;;;16.20;98.80;;;;;;5112115;27;20065;-83
2023/04/17 10:40:42;;;;;;;17.35;14.50;;;16.30;99.90;;;;;;5111536;28;20094;-81
2023/04/17 10:46:02;;;;;;;17.98;13.73;;;17.50;96.60;;;;;;5112600;27;20051;-83
2023/04/17 10:48:39;;;;;;;17.90;13.70;;;17.80;94.80;;;;;;5112810;27;20043;-83
2023/04/17 10:51:20;;;;;;;13.98;10.45;;;18.00;94.90;;;;;;5112829;27;20384;-82
2023/04/17 10:53:48;;;;;;;16.80;11.65;;;17.90;92.90;;;;;;5115059;27;20540;-82
2023/04/17 10:56:24;;;;;;;18.38;14.32;;;18.40;92.40;;;;;;5140892;27;20134;-83
2023/04/17 10:59:09;;;;;;;15.23;11.57;;;18.10;94.10;;;;;;5128322;27;20055;-82
2023/04/17 11:01:51;;;;;;;16.05;11.15;;;18.00;94.50;;;;;;5096814;27;20043;-84
2023/04/17 11:04:25;;;;;;;17.02;11.90;;;17.40;93.90;;;;;;5112636;27;20058;-83
2023/04/17 11:06:52;;;;;;;13.50;10.20;;;17.10;93.70;;;;;;5112366;27;20482;-84
2023/04/17 11:09:38;;;;;;;18.45;13.63;;;17.40;95.40;;;;;;5112113;27;20436;-84
2023/04/17 11:12:07;;;;;;;18.98;14.63;;;17.10;96.90;;;;;;5111470;27;20043;-83
2023/04/17 11:14:33;;;;;;;17.63;14.00;;;16.60;96.90;;;;;;5112492;27;20035;-84
2023/04/17 11:16:59;;;;;;;20.02;13.90;;;16.70;96.40;;;;;;5100212;28;20673;-83
2023/04/17 11:19:25;;;;;;;15.30;11.43;;;16.40;96.50;;;;;;5075000;28;20165;-82
2023/04/17 11:21:53;;;;;;;19.25;13.70;;;16.80;97.50;;;;;;5091618;28;20457;-83
2023/04/17 11:24:29;;;;;;;17.50;12.20;;;16.90;96.60;;;;;;5074641;28;20055;-83
2023/04/17 11:26:56;;;;;;;17.00;13.52;;;17.20;96.10;;;;;;5092891;28;20055;-80
2023/04/17 11:29:22;;;;;;;13.73;9.35;;;17.10;96.70;;;;;;5076479;28;20048;-84
2023/04/17 11:31:49;;;;;;;16.58;12.85;;;17.10;96.80;;;;;;5073897;28;20124;-82
2023/04/17 11:34:16;;;;;;;18.73;13.60;;;16.70;97.20;;;;;;5074584;28;20112;-83
2023/04/17 11:36:52;;;;;;;16.05;11.52;;;16.60;96.90;;;;;;5109169;28;20105;-84
2023/04/17 11:39:22;;;;;;;14.73;10.82;;;16.50;96.80;;;;;;5096180;27;20047;-82
2023/04/17 11:41:48;;;;;;;16.45;12.68;;;16.40;96.50;;;;;;5100998;27;20114;-83
2023/04/17 11:44:16;;;;;;;18.65;14.30;;;16.10;98.10;;;;;;5102713;27;20046;-82
2023/04/17 11:46:42;;;;;;;19.25;14.07;;;16.20;97.70;;;;;;5082686;28;20043;-82
2023/04/17 11:49:08;;;;;;;16.42;12.10;;;16.50;97.80;;;;;;5101340;27;20051;-81
2023/04/17 11:51:34;;;;;;;14.90;10.95;;;16.60;96.80;;;;;;5101239;27;20143;-83
2023/04/17 11:54:00;;;;;;;15.15;11.95;;;16.30;94.90;;;;;;5093900;27;20035;-83
2023/04/17 11:56:29;;;;;;;15.38;10.07;;;16.50;95.40;;;;;;5111302;27;20047;-82
2023/04/17 11:58:55;;;;;;;12.95;9.43;;;16.80;94.10;;;;;;5129432;27;20130;-84
2023/04/17 12:01:25;;;;;;;14.38;11.50;;;16.90;94.50;;;;;;5094237;28;20042;-83
2023/04/17 12:03:52;;;;;;;16.00;12.60;;;16.90;94.90;;;;;;5094586;28;20074;-82
2023/04/17 12:06:19;;;;;;;18.40;14.93;;;16.90;93.90;;;;;;5110967;28;20058;-82
2023/04/17 12:08:52;;;;;;;18.13;13.77;;;16.80;95.10;;;;;;5076913;28;20047;-83
2023/04/17 12:11:33;;;;;;;16.98;14.13;;;16.60;95.50;;;;;;5111672;28;20586;-81
2023/04/17 12:13:59;;;;;;;18.48;14.40;;;16.30;96.00;;;;;;5094821;28;20558;-82
2023/04/17 12:16:25;;;;;;;19.02;13.35;;;16.50;96.80;;;;;;5111499;28;20051;-82
2023/04/17 12:18:51;;;;;;;13.65;10.02;;;16.60;96.30;;;;;;5094109;28;20047;-83
2023/04/17 12:21:19;;;;;;;20.38;14.75;;;16.80;95.90;;;;;;5094263;28;20137;-83
2023/04/17 12:23:45;;;;;;;17.38;14.43;;;16.60;96.30;;;;;;5078102;28;20390;-82
2023/04/17 12:26:10;;;;;;;17.25;13.18;;;16.30;97.50;;;;;;5094192;28;20059;-82
2023/04/17 12:28:36;;;;;;;19.48;14.48;;;16.60;97.90;;;;;;5077754;28;20134;-83
2023/04/17 12:31:03;;;;;;;17.52;14.15;;;16.80;98.00;;;;;;5112889;28;20050;-82
2023/04/17 12:33:29;;;;;;;16.50;12.70;;;16.50;95.20;;;;;;5114764;28;20868;-82
2023/04/17 12:35:55;;;;;;;17.60;13.38;;;16.70;96.10;;;;;;5110729;28;20043;-81
2023/04/17 12:38:22;;;;;;;17.40;12.85;;;17.00;95.70;;;;;;5093417;28;20047;-82
2023/04/17 12:40:48;;;;;;;13.38;11.88;;;17.00;94.90;;;;;;5129168;28;20090;-83
2023/04/17 12:43:13;;;;;;;18.92;12.00;;;17.10;96.40;;;;;;5126051;28;20082;-83
2023/04/17 12:45:40;;;;;;;14.10;8.45;;;17.30;95.30;;;;;;5065657;28;20040;-83
2023/04/17 12:48:06;;;;;;;18.88;13.98;;;17.20;94.50;;;;;;5108622;28;20120;-83
2023/04/17 12:50:32;;;;;;;16.52;11.05;;;16.90;94.20;;;;;;5057954;28;20471;-88
2023/04/17 12:52:58;;;;;;;17.05;12.40;;;16.80;95.80;;;;;;5093468;28;20073;-88
2023/04/17 12:55:25;;;;;;;10.70;7.93;;;16.90;96.40;;;;;;5079086;28;20428;-90
2023/04/17 12:57:51;;;;;;;15.63;12.63;;;16.90;94.70;;;;;;5046550;28;20051;-88
2023/04/17 13:00:18;;;;;;;15.15;12.00;;;16.90;95.00;;;;;;5093520;28;20407;-89
2023/04/17 13:02:43;;;;;;;18.23;12.50;;;16.90;95.30;;;;;;5106556;28;20086;-87
2023/04/17 13:05:09;;;;;;;18.00;12.95;;;16.90;94.10;;;;;;5147468;27;20088;-86